Terminal Aerodrome Forecast
Issued by NWS Albany, NY

Home | Current Version | Previous Version | Text Only | Print | Product List | Glossary On
Versions: 1 2 3 4 5 6 7 8 9 10 11 12 13 14 15 16 17 18 19 20 21 22 23
446
FTUS41 KALY 292328
TAFGFL
TAF
KGFL 292328Z 3000/3024 12004KT 6SM -RA BR BKN060 BKN120
      TEMPO 3000/3002 2SM -TSRA OVC030CB
     FM300200 19003KT 6SM BR VCSH SCT120
     FM300400 VRB03KT 4SM BR VCSH BKN090 BKN120
      TEMPO 3005/3009 2SM BR OVC004
     FM301100 20006KT P6SM SCT025 BKN150
     FM301500 21008KT P6SM VCSH BKN050 BKN150=

USA.gov is the U.S. government's official web portal to all federal, state and local government web resources and services.